Time;durP1;ratioP1;P1;durP2;ratioP2;P2;SDS_P1;SDS_P2;PMS_P1;PMS_P2;Temp;Humidity;BMP_temperature;BMP_pressure;BME280_temperature;BME280_humidity;BME280_pressure;Samples;Min_cycle;Max_cycle;Signal;HPM_P1;HPM_P2
2023/07/29 00:02:02;;;;;;;6.78;2.20;;;;;;;;;;6154224;23;20096;-42
2023/07/29 00:04:30;;;;;;;9.07;2.77;;;;;;;;;;6145482;23;20463;-42
2023/07/29 00:06:57;;;;;;;7.97;2.17;;;;;;;;;;6158549;23;20371;-43
2023/07/29 00:09:25;;;;;;;9.35;2.03;;;;;;;;;;6145628;23;20013;-42
2023/07/29 00:11:53;;;;;;;7.75;2.17;;;;;;;;;;6154546;23;20684;-42
2023/07/29 00:14:22;;;;;;;10.13;3.08;;;;;;;;;;6153933;23;20060;-44
2023/07/29 00:16:51;;;;;;;11.10;2.70;;;;;;;;;;6154291;23;20017;-44
2023/07/29 00:19:20;;;;;;;8.30;2.13;;;;;;;;;;6153118;23;20475;-42
2023/07/29 00:21:47;;;;;;;7.78;2.42;;;;;;;;;;6149883;23;20021;-42
2023/07/29 00:24:15;;;;;;;11.48;2.53;;;;;;;;;;6161815;23;20582;-42
2023/07/29 00:26:43;;;;;;;11.10;2.60;;;;;;;;;;6153916;23;20025;-42
2023/07/29 00:29:11;;;;;;;9.83;2.60;;;;;;;;;;6161154;23;20040;-42
2023/07/29 00:31:40;;;;;;;8.55;2.67;;;;;;;;;;6154301;23;20017;-42
2023/07/29 00:34:09;;;;;;;10.23;2.53;;;;;;;;;;6149716;23;20031;-43
2023/07/29 00:36:37;;;;;;;9.32;2.50;;;;;;;;;;6159721;23;20040;-44
2023/07/29 00:39:05;;;;;;;8.73;2.63;;;;;;;;;;6145254;23;20031;-42
2023/07/29 00:41:33;;;;;;;9.43;2.90;;;;;;;;;;6157337;23;20025;-45
2023/07/29 00:44:01;;;;;;;9.82;2.58;;;;;;;;;;6153505;23;20440;-42
2023/07/29 00:46:29;;;;;;;8.90;2.65;;;;;;;;;;6159053;23;20013;-42
2023/07/29 00:48:58;;;;;;;7.30;2.67;;;;;;;;;;6153662;23;20269;-43
2023/07/29 00:51:26;;;;;;;9.68;2.50;;;;;;;;;;6154730;23;20858;-44
2023/07/29 00:53:53;;;;;;;13.80;3.20;;;;;;;;;;6148349;23;20021;-43
2023/07/29 00:56:21;;;;;;;10.07;2.80;;;;;;;;;;6157511;23;20028;-42
2023/07/29 00:58:49;;;;;;;11.40;2.70;;;;;;;;;;6159593;23;20491;-43
2023/07/29 01:01:17;;;;;;;9.73;2.65;;;;;;;;;;6147302;23;20021;-42
2023/07/29 01:03:45;;;;;;;9.10;2.47;;;;;;;;;;6159952;23;20387;-43
2023/07/29 01:06:16;;;;;;;9.30;2.73;;;;;;;;;;6151406;23;20467;-42
2023/07/29 01:08:51;;;;;;;10.13;2.10;;;;;;;;;;6153760;23;20017;-42
2023/07/29 01:11:26;;;;;;;8.63;2.72;;;;;;;;;;6160208;23;20087;-43
2023/07/29 01:13:57;;;;;;;11.00;2.55;;;;;;;;;;6148401;23;20456;-42
2023/07/29 01:16:30;;;;;;;10.30;2.50;;;;;;;;;;6157999;23;20448;-44
2023/07/29 01:18:59;;;;;;;11.97;2.77;;;;;;;;;;6147360;23;20027;-43
2023/07/29 01:21:29;;;;;;;9.48;2.78;;;;;;;;;;6160838;23;20017;-43
2023/07/29 01:24:00;;;;;;;10.60;3.03;;;;;;;;;;6149987;23;20021;-43
2023/07/29 01:26:30;;;;;;;9.35;2.67;;;;;;;;;;6155971;23;20017;-42
2023/07/29 01:28:58;;;;;;;11.65;2.88;;;;;;;;;;6157549;23;20103;-43
2023/07/29 01:31:29;;;;;;;11.77;2.93;;;;;;;;;;6155655;23;20092;-43
2023/07/29 01:33:58;;;;;;;9.63;2.78;;;;;;;;;;6156072;23;20082;-43
2023/07/29 01:36:28;;;;;;;12.98;3.00;;;;;;;;;;6158044;23;20017;-43
2023/07/29 01:38:57;;;;;;;11.00;3.20;;;;;;;;;;6152968;23;20094;-44
2023/07/29 01:41:44;;;;;;;7.78;2.28;;;;;;;;;;6152324;23;20355;-42
2023/07/29 01:44:13;;;;;;;11.03;2.77;;;;;;;;;;6152809;23;20025;-44
2023/07/29 01:46:41;;;;;;;9.77;2.83;;;;;;;;;;6155704;23;20027;-42
2023/07/29 01:49:08;;;;;;;11.70;2.72;;;;;;;;;;6161724;23;20028;-43
2023/07/29 01:51:36;;;;;;;11.60;3.17;;;;;;;;;;6160395;23;20329;-42
2023/07/29 01:54:04;;;;;;;12.00;3.10;;;;;;;;;;6160381;23;20021;-42
2023/07/29 01:56:31;;;;;;;13.60;3.73;;;;;;;;;;6162267;23;20424;-43
2023/07/29 01:59:06;;;;;;;9.77;3.20;;;;;;;;;;6160855;23;20108;-42
2023/07/29 02:01:34;;;;;;;11.52;3.42;;;;;;;;;;6163226;23;20013;-43
2023/07/29 02:04:02;;;;;;;8.40;2.28;;;;;;;;;;6142551;23;20040;-42
2023/07/29 02:06:29;;;;;;;11.40;3.28;;;;;;;;;;6166225;23;20467;-42
2023/07/29 02:08:57;;;;;;;9.93;2.67;;;;;;;;;;6151156;23;20018;-43
2023/07/29 02:11:27;;;;;;;11.32;2.80;;;;;;;;;;6164026;23;20017;-44
2023/07/29 02:13:55;;;;;;;8.85;3.08;;;;;;;;;;6152159;23;20489;-44
2023/07/29 02:16:24;;;;;;;12.48;2.50;;;;;;;;;;6160380;23;20017;-42
2023/07/29 02:18:52;;;;;;;10.93;2.58;;;;;;;;;;6150163;23;20021;-43
2023/07/29 02:21:23;;;;;;;8.53;2.60;;;;;;;;;;6136605;23;20017;-42
2023/07/29 02:23:54;;;;;;;11.38;2.72;;;;;;;;;;6167677;23;20023;-43
2023/07/29 02:26:22;;;;;;;8.77;3.25;;;;;;;;;;6159098;23;20376;-42
2023/07/29 02:28:50;;;;;;;9.85;2.80;;;;;;;;;;6162574;23;20443;-43
2023/07/29 02:31:18;;;;;;;11.70;2.78;;;;;;;;;;6164087;23;20097;-44
2023/07/29 02:33:48;;;;;;;9.20;2.60;;;;;;;;;;6157221;23;20451;-43
2023/07/29 02:36:15;;;;;;;8.95;2.92;;;;;;;;;;6169822;23;20031;-42
2023/07/29 02:38:43;;;;;;;11.57;3.00;;;;;;;;;;6160361;23;20343;-46
2023/07/29 02:41:15;;;;;;;7.55;2.25;;;;;;;;;;6161457;23;20083;-43
2023/07/29 02:43:44;;;;;;;10.18;2.53;;;;;;;;;;6156726;23;20013;-43
2023/07/29 02:46:11;;;;;;;8.33;2.17;;;;;;;;;;6161085;23;20013;-45
2023/07/29 02:48:39;;;;;;;8.55;2.40;;;;;;;;;;6159032;23;20425;-43
2023/07/29 02:51:08;;;;;;;9.07;2.80;;;;;;;;;;6155991;23;20791;-45
2023/07/29 02:53:37;;;;;;;10.48;2.17;;;;;;;;;;6150900;23;20357;-43
2023/07/29 02:56:06;;;;;;;11.25;2.65;;;;;;;;;;6165297;23;20096;-43
2023/07/29 02:58:34;;;;;;;10.37;2.10;;;;;;;;;;6163501;23;20067;-44
2023/07/29 03:01:01;;;;;;;8.02;2.30;;;;;;;;;;6150019;23;20499;-43
2023/07/29 03:03:29;;;;;;;11.35;2.40;;;;;;;;;;6164087;23;20024;-42
2023/07/29 03:06:01;;;;;;;10.27;2.70;;;;;;;;;;6149831;23;20565;-42
2023/07/29 03:08:30;;;;;;;9.90;2.45;;;;;;;;;;6163815;23;20025;-43
2023/07/29 03:10:58;;;;;;;8.10;2.20;;;;;;;;;;6151993;23;20019;-43
2023/07/29 03:13:26;;;;;;;8.25;2.10;;;;;;;;;;6149929;23;20427;-43
2023/07/29 03:15:54;;;;;;;8.25;2.55;;;;;;;;;;6146200;23;20021;-42
2023/07/29 03:18:21;;;;;;;7.95;2.22;;;;;;;;;;6159587;23;20017;-43
2023/07/29 03:20:56;;;;;;;8.63;2.60;;;;;;;;;;6114693;23;20031;-44
2023/07/29 03:23:24;;;;;;;7.57;1.80;;;;;;;;;;6151957;23;20020;-44
2023/07/29 03:25:56;;;;;;;7.25;2.10;;;;;;;;;;6145527;23;20020;-44
2023/07/29 03:28:24;;;;;;;7.38;2.30;;;;;;;;;;6164685;23;20439;-44
2023/07/29 03:30:52;;;;;;;8.60;2.15;;;;;;;;;;6156315;23;20029;-48
2023/07/29 03:33:20;;;;;;;8.35;2.90;;;;;;;;;;6170420;23;20056;-43
2023/07/29 03:35:47;;;;;;;8.37;2.17;;;;;;;;;;6165611;23;20040;-42
2023/07/29 03:38:15;;;;;;;9.18;2.20;;;;;;;;;;6156001;23;20017;-42
2023/07/29 03:40:43;;;;;;;9.45;2.40;;;;;;;;;;6167860;23;20017;-42
2023/07/29 03:43:13;;;;;;;9.50;2.10;;;;;;;;;;6162267;23;20017;-43
2023/07/29 03:45:41;;;;;;;7.63;2.10;;;;;;;;;;6152995;23;20051;-43
2023/07/29 03:48:09;;;;;;;11.97;2.47;;;;;;;;;;6162515;23;20017;-43
2023/07/29 03:50:36;;;;;;;6.47;1.75;;;;;;;;;;6161825;23;20024;-43
2023/07/29 03:53:04;;;;;;;7.30;2.08;;;;;;;;;;6152454;23;20023;-43
2023/07/29 03:55:32;;;;;;;7.00;2.13;;;;;;;;;;6164507;23;20097;-48
2023/07/29 03:58:00;;;;;;;11.02;2.42;;;;;;;;;;6135390;23;20027;-44
2023/07/29 04:00:29;;;;;;;8.60;2.43;;;;;;;;;;6167661;23;20014;-43
2023/07/29 04:02:57;;;;;;;7.90;2.47;;;;;;;;;;6161651;23;20088;-43
2023/07/29 04:05:25;;;;;;;8.88;1.88;;;;;;;;;;6159959;23;20028;-42
2023/07/29 04:07:53;;;;;;;6.85;2.13;;;;;;;;;;6162323;23;20021;-44
2023/07/29 04:10:22;;;;;;;14.05;2.00;;;;;;;;;;6159846;23;20036;-43
2023/07/29 04:12:50;;;;;;;6.73;2.07;;;;;;;;;;6136333;23;20334;-43
2023/07/29 04:15:17;;;;;;;7.63;2.13;;;;;;;;;;6151721;23;20028;-44
2023/07/29 04:17:46;;;;;;;7.03;1.77;;;;;;;;;;6158017;23;20035;-42
2023/07/29 04:20:14;;;;;;;7.85;2.00;;;;;;;;;;6163999;23;20020;-44
2023/07/29 04:22:42;;;;;;;9.85;2.05;;;;;;;;;;6150311;23;20504;-43
2023/07/29 04:25:10;;;;;;;8.90;2.13;;;;;;;;;;6158786;23;20514;-42
2023/07/29 04:27:37;;;;;;;8.57;2.15;;;;;;;;;;6164799;23;20021;-45
2023/07/29 04:30:06;;;;;;;9.00;2.08;;;;;;;;;;6159265;23;20199;-45
2023/07/29 04:32:33;;;;;;;7.97;2.47;;;;;;;;;;6161826;23;20017;-44
2023/07/29 04:35:02;;;;;;;7.18;2.50;;;;;;;;;;6152517;23;20017;-44
2023/07/29 04:37:30;;;;;;;7.47;2.10;;;;;;;;;;6160567;23;20029;-43
2023/07/29 04:39:58;;;;;;;6.45;1.75;;;;;;;;;;6146105;23;20017;-43
2023/07/29 04:42:25;;;;;;;9.40;2.10;;;;;;;;;;6165788;23;20021;-43
2023/07/29 04:44:53;;;;;;;10.77;2.40;;;;;;;;;;6156385;23;20027;-43
2023/07/29 04:47:21;;;;;;;9.90;2.20;;;;;;;;;;6159695;23;20021;-42
2023/07/29 04:49:49;;;;;;;13.57;2.50;;;;;;;;;;6148160;23;20521;-43
2023/07/29 04:52:20;;;;;;;8.85;2.45;;;;;;;;;;6162053;23;20024;-44
2023/07/29 04:54:48;;;;;;;8.20;1.88;;;;;;;;;;6148355;23;20017;-44
2023/07/29 04:57:16;;;;;;;8.40;2.13;;;;;;;;;;6150381;23;20348;-43
2023/07/29 04:59:44;;;;;;;8.07;2.10;;;;;;;;;;6161123;23;20021;-46
2023/07/29 05:02:12;;;;;;;7.60;1.90;;;;;;;;;;6142162;23;20021;-43
2023/07/29 05:04:39;;;;;;;8.02;2.10;;;;;;;;;;6157548;23;20016;-43
2023/07/29 05:07:10;;;;;;;8.75;2.40;;;;;;;;;;6151064;23;20030;-43
2023/07/29 05:09:39;;;;;;;7.10;1.80;;;;;;;;;;6165010;23;20021;-43
2023/07/29 05:12:07;;;;;;;10.20;2.30;;;;;;;;;;6146360;23;20021;-43
2023/07/29 05:14:35;;;;;;;9.23;2.40;;;;;;;;;;6156658;23;20018;-43
2023/07/29 05:17:02;;;;;;;8.50;2.65;;;;;;;;;;6142999;23;20040;-43
2023/07/29 05:19:30;;;;;;;8.18;2.20;;;;;;;;;;6161681;23;20073;-42
2023/07/29 05:21:58;;;;;;;8.85;2.05;;;;;;;;;;6143909;23;20870;-43
2023/07/29 05:24:25;;;;;;;7.93;2.10;;;;;;;;;;6162930;23;20017;-42
2023/07/29 05:26:54;;;;;;;10.30;2.27;;;;;;;;;;6152556;23;20753;-42
2023/07/29 05:29:22;;;;;;;8.65;2.33;;;;;;;;;;6161179;23;20017;-43
2023/07/29 05:31:51;;;;;;;8.68;2.53;;;;;;;;;;6157037;23;20021;-42
2023/07/29 05:34:18;;;;;;;7.15;2.33;;;;;;;;;;6157427;23;20082;-42
2023/07/29 05:36:46;;;;;;;11.43;2.15;;;;;;;;;;6146247;23;20290;-42
2023/07/29 05:39:14;;;;;;;6.90;2.30;;;;;;;;;;6161936;23;20017;-43
2023/07/29 05:41:42;;;;;;;7.28;2.15;;;;;;;;;;6146907;23;20466;-42
2023/07/29 05:44:11;;;;;;;10.73;2.88;;;;;;;;;;6161770;23;20455;-43
2023/07/29 05:46:38;;;;;;;13.27;2.45;;;;;;;;;;6137293;23;20021;-42
2023/07/29 05:49:07;;;;;;;9.68;2.17;;;;;;;;;;6162222;23;20387;-43
2023/07/29 05:51:35;;;;;;;7.30;2.20;;;;;;;;;;6151269;23;20028;-44
2023/07/29 05:54:02;;;;;;;13.43;2.70;;;;;;;;;;6156858;23;20017;-42
2023/07/29 05:56:31;;;;;;;11.77;2.78;;;;;;;;;;6145106;23;20527;-43
2023/07/29 05:58:59;;;;;;;10.00;2.67;;;;;;;;;;6160607;23;20028;-43
2023/07/29 06:01:28;;;;;;;8.52;3.03;;;;;;;;;;6154911;23;20017;-41
2023/07/29 06:03:56;;;;;;;9.07;2.80;;;;;;;;;;6152477;23;20013;-43
2023/07/29 06:06:24;;;;;;;10.35;2.60;;;;;;;;;;6162772;23;20017;-43
2023/07/29 06:08:56;;;;;;;9.15;2.85;;;;;;;;;;6148517;23;20092;-42
2023/07/29 06:11:23;;;;;;;10.27;3.17;;;;;;;;;;6157685;23;20379;-46
2023/07/29 06:13:51;;;;;;;11.50;3.47;;;;;;;;;;6149333;23;20013;-42
2023/07/29 06:16:19;;;;;;;8.27;2.43;;;;;;;;;;6159948;23;20013;-42
2023/07/29 06:18:48;;;;;;;9.88;2.60;;;;;;;;;;6146980;23;20286;-42
2023/07/29 06:21:17;;;;;;;10.07;2.47;;;;;;;;;;6154416;23;20043;-44
2023/07/29 06:23:45;;;;;;;9.55;2.75;;;;;;;;;;6151740;23;20021;-42
2023/07/29 06:26:13;;;;;;;7.60;2.35;;;;;;;;;;6159211;23;20056;-44
2023/07/29 06:28:40;;;;;;;8.97;3.03;;;;;;;;;;6153333;23;20013;-42
2023/07/29 06:31:09;;;;;;;9.27;2.72;;;;;;;;;;6151812;23;20025;-42
2023/07/29 06:33:36;;;;;;;8.40;2.10;;;;;;;;;;6152816;23;20017;-42
2023/07/29 06:36:06;;;;;;;11.77;2.58;;;;;;;;;;6154043;23;20238;-42
2023/07/29 06:38:33;;;;;;;7.75;2.67;;;;;;;;;;6147898;23;20112;-42
2023/07/29 06:41:01;;;;;;;8.87;2.20;;;;;;;;;;6157633;23;20424;-43
2023/07/29 06:43:29;;;;;;;8.55;2.47;;;;;;;;;;6151043;23;20239;-43
2023/07/29 06:45:56;;;;;;;7.63;2.50;;;;;;;;;;6155666;23;20032;-44
2023/07/29 06:48:24;;;;;;;9.38;2.30;;;;;;;;;;6151309;23;20043;-42
2023/07/29 06:50:52;;;;;;;7.97;2.40;;;;;;;;;;6159630;23;20021;-42
2023/07/29 06:53:22;;;;;;;9.13;2.30;;;;;;;;;;6151327;23;20446;-43
2023/07/29 06:55:50;;;;;;;8.40;2.25;;;;;;;;;;6146203;23;20017;-43
2023/07/29 06:58:18;;;;;;;7.53;1.90;;;;;;;;;;6154788;23;20035;-42
2023/07/29 07:00:46;;;;;;;7.10;2.13;;;;;;;;;;6149489;23;20028;-44
2023/07/29 07:03:14;;;;;;;7.43;2.10;;;;;;;;;;6157606;23;20013;-42
2023/07/29 07:05:42;;;;;;;7.00;2.00;;;;;;;;;;6148892;23;20013;-43
2023/07/29 07:08:10;;;;;;;5.70;2.28;;;;;;;;;;6158614;23;20017;-46
2023/07/29 07:10:39;;;;;;;8.48;2.25;;;;;;;;;;6143041;23;20021;-42
2023/07/29 07:13:06;;;;;;;6.50;2.22;;;;;;;;;;6158284;23;20100;-42
2023/07/29 07:15:34;;;;;;;9.80;2.55;;;;;;;;;;6148331;23;20489;-42
2023/07/29 07:18:02;;;;;;;6.43;1.97;;;;;;;;;;6151980;23;20023;-41
2023/07/29 07:20:30;;;;;;;7.35;2.05;;;;;;;;;;6152134;23;20013;-43
2023/07/29 07:22:58;;;;;;;9.45;2.72;;;;;;;;;;6160174;23;20017;-44
2023/07/29 07:25:26;;;;;;;7.72;2.45;;;;;;;;;;6145698;23;20017;-42
2023/07/29 07:27:55;;;;;;;7.72;2.00;;;;;;;;;;6155629;23;20025;-45
2023/07/29 07:30:23;;;;;;;10.03;2.83;;;;;;;;;;6156515;23;20017;-43
2023/07/29 07:32:50;;;;;;;6.80;2.60;;;;;;;;;;6154952;23;20452;-43
2023/07/29 07:35:19;;;;;;;7.78;2.22;;;;;;;;;;6152761;23;20020;-43
2023/07/29 07:37:46;;;;;;;7.53;2.65;;;;;;;;;;6160348;23;20017;-45
2023/07/29 07:40:14;;;;;;;6.70;1.80;;;;;;;;;;6149828;23;20048;-43
2023/07/29 07:42:42;;;;;;;8.43;2.50;;;;;;;;;;6157547;23;20024;-43
2023/07/29 07:45:11;;;;;;;9.65;2.25;;;;;;;;;;6145274;23;20028;-43
2023/07/29 07:47:38;;;;;;;7.75;2.17;;;;;;;;;;6160430;23;20017;-43
2023/07/29 07:50:08;;;;;;;8.18;2.00;;;;;;;;;;6153920;23;20360;-43
2023/07/29 07:52:36;;;;;;;6.03;2.25;;;;;;;;;;6147695;23;20048;-43
2023/07/29 07:55:04;;;;;;;7.73;2.47;;;;;;;;;;6161636;23;20357;-43
2023/07/29 07:57:32;;;;;;;9.63;2.58;;;;;;;;;;6148091;23;20020;-44
2023/07/29 07:59:59;;;;;;;7.00;2.22;;;;;;;;;;6159575;23;20017;-44
2023/07/29 08:02:28;;;;;;;7.28;1.80;;;;;;;;;;6151292;23;20017;-43
2023/07/29 08:04:56;;;;;;;11.38;1.80;;;;;;;;;;6159148;23;20040;-43
2023/07/29 08:07:24;;;;;;;10.47;2.17;;;;;;;;;;6145517;23;20064;-45
2023/07/29 08:09:52;;;;;;;8.95;2.03;;;;;;;;;;6154955;23;20029;-43
2023/07/29 08:12:19;;;;;;;10.75;2.35;;;;;;;;;;6152563;23;20400;-43
2023/07/29 08:14:47;;;;;;;7.15;2.10;;;;;;;;;;6157599;23;20048;-44
2023/07/29 08:17:33;;;;;;;11.10;2.03;;;;;;;;;;6145074;23;20021;-43
2023/07/29 08:20:03;;;;;;;9.50;2.07;;;;;;;;;;6153729;23;20385;-43
2023/07/29 08:22:30;;;;;;;8.13;2.05;;;;;;;;;;6160790;23;20017;-46
2023/07/29 08:25:15;;;;;;;5.18;1.50;;;;;;;;;;6143856;23;20465;-43
2023/07/29 08:27:43;;;;;;;6.40;1.30;;;;;;;;;;6160707;23;20021;-44
2023/07/29 08:30:11;;;;;;;6.45;1.70;;;;;;;;;;6154830;23;20091;-44
2023/07/29 08:32:40;;;;;;;7.13;1.77;;;;;;;;;;6157702;23;20021;-45
2023/07/29 08:35:08;;;;;;;7.80;1.70;;;;;;;;;;6148536;23;20499;-45
2023/07/29 08:37:36;;;;;;;7.65;2.20;;;;;;;;;;6156826;23;20068;-43
2023/07/29 08:40:04;;;;;;;9.60;1.90;;;;;;;;;;6146501;23;20327;-43
2023/07/29 08:42:33;;;;;;;4.85;1.48;;;;;;;;;;6160635;23;20104;-44
2023/07/29 08:45:02;;;;;;;8.03;1.67;;;;;;;;;;6150311;23;20032;-45
2023/07/29 08:47:30;;;;;;;6.68;1.40;;;;;;;;;;6157345;23;20096;-46
2023/07/29 08:50:00;;;;;;;8.23;1.92;;;;;;;;;;6149295;23;20044;-44
2023/07/29 08:52:28;;;;;;;7.47;1.70;;;;;;;;;;6159902;23;20048;-45
2023/07/29 08:54:58;;;;;;;6.47;1.88;;;;;;;;;;6144042;23;20017;-44
2023/07/29 08:57:28;;;;;;;7.30;1.30;;;;;;;;;;6147401;23;20021;-44
2023/07/29 08:59:56;;;;;;;7.05;2.13;;;;;;;;;;6160362;23;20052;-46
2023/07/29 09:02:24;;;;;;;10.20;1.92;;;;;;;;;;6148821;23;20024;-44
2023/07/29 09:04:51;;;;;;;8.48;1.90;;;;;;;;;;6162765;23;20439;-44
2023/07/29 09:07:21;;;;;;;9.25;2.38;;;;;;;;;;6150356;23;20023;-43
2023/07/29 09:09:49;;;;;;;9.63;2.23;;;;;;;;;;6157053;23;20017;-44
2023/07/29 09:12:17;;;;;;;7.10;1.45;;;;;;;;;;6152845;23;20092;-43
2023/07/29 09:14:44;;;;;;;9.32;1.88;;;;;;;;;;6151736;23;20067;-43
2023/07/29 09:17:12;;;;;;;8.85;1.95;;;;;;;;;;6146323;23;20017;-43
2023/07/29 09:19:40;;;;;;;8.95;1.50;;;;;;;;;;6159532;23;20025;-43
2023/07/29 09:22:17;;;;;;;8.13;1.80;;;;;;;;;;6139015;23;20021;-43
2023/07/29 09:24:47;;;;;;;8.88;1.60;;;;;;;;;;6154560;23;20063;-45
2023/07/29 09:27:24;;;;;;;8.85;1.27;;;;;;;;;;6145077;23;20016;-44
2023/07/29 09:29:52;;;;;;;7.93;1.67;;;;;;;;;;6153991;23;20347;-43
2023/07/29 09:32:20;;;;;;;10.23;1.65;;;;;;;;;;6147442;23;20026;-43
2023/07/29 09:34:52;;;;;;;7.67;1.43;;;;;;;;;;6159632;23;20016;-45
2023/07/29 09:37:21;;;;;;;5.95;1.20;;;;;;;;;;6154445;23;20539;-44
2023/07/29 09:39:51;;;;;;;5.15;1.65;;;;;;;;;;6142002;23;20028;-44
2023/07/29 09:42:19;;;;;;;9.02;1.25;;;;;;;;;;6156681;23;20021;-45
2023/07/29 09:44:47;;;;;;;5.88;1.13;;;;;;;;;;6149153;23;20025;-44
2023/07/29 09:47:24;;;;;;;7.20;1.50;;;;;;;;;;6153719;23;20469;-44
2023/07/29 09:49:52;;;;;;;5.47;0.93;;;;;;;;;;6149273;23;20017;-44
2023/07/29 09:52:20;;;;;;;5.80;1.17;;;;;;;;;;6152587;23;20017;-45
2023/07/29 09:54:48;;;;;;;12.13;2.17;;;;;;;;;;6146549;23;20063;-44
2023/07/29 09:57:19;;;;;;;5.70;1.20;;;;;;;;;;6147902;23;20071;-45
2023/07/29 09:59:54;;;;;;;5.13;1.10;;;;;;;;;;6152098;23;20461;-44
2023/07/29 10:02:24;;;;;;;9.90;1.52;;;;;;;;;;6143329;23;20017;-45
2023/07/29 10:04:53;;;;;;;6.68;1.50;;;;;;;;;;6153342;23;20371;-43
2023/07/29 10:07:20;;;;;;;7.10;1.15;;;;;;;;;;6153079;23;20027;-46
2023/07/29 10:09:49;;;;;;;8.13;1.40;;;;;;;;;;6148648;23;20017;-45
2023/07/29 10:12:18;;;;;;;7.50;1.80;;;;;;;;;;6152423;23;20023;-45
2023/07/29 10:14:48;;;;;;;7.05;1.63;;;;;;;;;;6156869;23;20021;-44
2023/07/29 10:17:16;;;;;;;8.57;1.83;;;;;;;;;;6145655;23;20029;-43
2023/07/29 10:19:44;;;;;;;8.13;1.73;;;;;;;;;;6147453;23;20079;-44
2023/07/29 10:22:14;;;;;;;7.18;1.85;;;;;;;;;;6151493;23;20423;-45
2023/07/29 10:24:43;;;;;;;6.73;1.23;;;;;;;;;;6161707;23;20024;-45
2023/07/29 10:27:13;;;;;;;4.65;1.17;;;;;;;;;;6151347;23;20047;-45
2023/07/29 10:29:44;;;;;;;7.03;1.30;;;;;;;;;;6154068;23;20021;-45
2023/07/29 10:32:31;;;;;;;7.93;1.30;;;;;;;;;;6146219;23;20031;-48
2023/07/29 10:34:59;;;;;;;6.25;1.42;;;;;;;;;;6145425;23;20391;-44
2023/07/29 10:37:27;;;;;;;5.70;1.20;;;;;;;;;;6159334;23;20040;-47
2023/07/29 10:39:55;;;;;;;6.38;1.10;;;;;;;;;;6136574;23;20124;-44
2023/07/29 10:42:23;;;;;;;5.05;1.23;;;;;;;;;;6147127;23;20024;-44
2023/07/29 10:44:53;;;;;;;5.38;0.70;;;;;;;;;;6148750;23;21001;-47
2023/07/29 10:47:24;;;;;;;7.18;1.27;;;;;;;;;;6154434;23;20024;-45
2023/07/29 10:49:54;;;;;;;8.07;1.13;;;;;;;;;;6142280;23;20021;-45
2023/07/29 10:52:29;;;;;;;6.50;1.10;;;;;;;;;;6158950;23;20426;-43
2023/07/29 10:54:59;;;;;;;7.82;1.45;;;;;;;;;;6142671;23;20041;-44
2023/07/29 10:57:32;;;;;;;8.25;1.08;;;;;;;;;;6136392;23;20320;-43
2023/07/29 11:00:02;;;;;;;7.22;1.00;;;;;;;;;;6153597;23;20552;-43
2023/07/29 11:02:31;;;;;;;6.03;1.13;;;;;;;;;;6142128;23;20407;-46
2023/07/29 11:04:59;;;;;;;7.43;1.02;;;;;;;;;;6158323;23;20017;-44
2023/07/29 11:07:28;;;;;;;8.02;1.17;;;;;;;;;;6143731;23;20489;-45
2023/07/29 11:10:00;;;;;;;6.20;0.80;;;;;;;;;;6157510;23;20024;-46
2023/07/29 11:12:35;;;;;;;6.28;1.00;;;;;;;;;;6144866;23;20021;-44
2023/07/29 11:15:05;;;;;;;8.10;1.17;;;;;;;;;;6151976;23;20397;-42
2023/07/29 11:17:34;;;;;;;6.72;1.00;;;;;;;;;;6143712;23;20017;-47
2023/07/29 11:20:07;;;;;;;8.50;1.30;;;;;;;;;;6148363;23;20571;-44
2023/07/29 11:22:35;;;;;;;8.70;1.10;;;;;;;;;;6156032;23;20430;-42
2023/07/29 11:25:03;;;;;;;7.60;1.20;;;;;;;;;;6135256;23;20327;-42
2023/07/29 11:27:31;;;;;;;6.47;1.07;;;;;;;;;;6154604;23;20027;-44
2023/07/29 11:29:59;;;;;;;6.97;1.10;;;;;;;;;;6150332;23;20017;-42
2023/07/29 11:32:29;;;;;;;5.75;0.95;;;;;;;;;;6152052;23;20032;-44
2023/07/29 11:34:57;;;;;;;5.50;0.82;;;;;;;;;;6147245;23;20013;-44
2023/07/29 11:37:24;;;;;;;9.23;1.65;;;;;;;;;;6156436;23;20017;-46
2023/07/29 11:39:52;;;;;;;9.00;1.40;;;;;;;;;;6148869;23;20052;-43
2023/07/29 11:42:20;;;;;;;10.27;1.52;;;;;;;;;;6153722;23;20023;-45
2023/07/29 11:44:47;;;;;;;6.10;1.08;;;;;;;;;;6145185;23;20402;-44
2023/07/29 11:47:15;;;;;;;6.00;1.15;;;;;;;;;;6157289;23;20017;-41
2023/07/29 11:49:44;;;;;;;3.85;0.93;;;;;;;;;;6150418;23;20017;-44
2023/07/29 11:52:12;;;;;;;10.03;1.60;;;;;;;;;;6160282;23;20028;-42
2023/07/29 11:54:40;;;;;;;6.50;1.33;;;;;;;;;;6146517;23;20478;-42
2023/07/29 11:57:08;;;;;;;4.57;0.88;;;;;;;;;;6159744;23;20021;-40
2023/07/29 11:59:37;;;;;;;6.40;1.10;;;;;;;;;;6146502;23;20308;-44
2023/07/29 12:02:07;;;;;;;9.88;0.82;;;;;;;;;;6158364;23;20501;-45
2023/07/29 12:04:35;;;;;;;9.07;1.30;;;;;;;;;;6148416;23;20013;-47
2023/07/29 12:07:05;;;;;;;9.70;1.67;;;;;;;;;;6155847;23;20013;-42
2023/07/29 12:09:38;;;;;;;9.82;1.92;;;;;;;;;;6161512;23;20096;-41
2023/07/29 12:12:06;;;;;;;8.60;1.73;;;;;;;;;;6148221;23;20024;-42
2023/07/29 12:14:34;;;;;;;7.47;1.60;;;;;;;;;;6152398;23;20039;-42
2023/07/29 12:17:03;;;;;;;9.37;1.87;;;;;;;;;;6136811;23;20021;-42
2023/07/29 12:19:35;;;;;;;11.70;1.70;;;;;;;;;;6161187;23;20013;-42
2023/07/29 12:22:03;;;;;;;9.27;2.08;;;;;;;;;;6151255;23;20108;-43
2023/07/29 12:24:33;;;;;;;6.78;1.85;;;;;;;;;;6160708;23;20044;-44
2023/07/29 12:27:00;;;;;;;7.35;1.80;;;;;;;;;;6147348;23;20036;-42
2023/07/29 12:29:28;;;;;;;11.10;1.53;;;;;;;;;;6159583;23;20013;-42
2023/07/29 12:32:00;;;;;;;10.18;1.20;;;;;;;;;;6157923;23;20028;-44
2023/07/29 12:34:28;;;;;;;11.77;1.30;;;;;;;;;;6159840;23;20100;-44
2023/07/29 12:36:56;;;;;;;10.85;1.50;;;;;;;;;;6143230;23;20355;-44
2023/07/29 12:39:25;;;;;;;12.63;1.35;;;;;;;;;;6158970;23;20108;-42
2023/07/29 12:41:55;;;;;;;8.00;1.20;;;;;;;;;;6147340;23;20608;-43
2023/07/29 12:44:23;;;;;;;7.20;1.58;;;;;;;;;;6158148;23;20060;-44
2023/07/29 12:46:52;;;;;;;7.95;1.05;;;;;;;;;;6148728;23;20025;-43
2023/07/29 12:49:22;;;;;;;9.68;1.40;;;;;;;;;;6155113;23;20016;-42
2023/07/29 12:51:50;;;;;;;11.05;1.63;;;;;;;;;;6160120;23;20399;-43
2023/07/29 12:54:17;;;;;;;10.67;1.40;;;;;;;;;;6143903;23;20017;-43
2023/07/29 12:56:45;;;;;;;9.85;1.63;;;;;;;;;;6156605;23;20017;-42
2023/07/29 12:59:14;;;;;;;10.60;1.80;;;;;;;;;;6148573;23;20029;-44
2023/07/29 13:01:42;;;;;;;9.02;1.65;;;;;;;;;;6156786;23;20017;-43
2023/07/29 13:04:10;;;;;;;6.63;1.17;;;;;;;;;;6150570;23;20373;-43
2023/07/29 13:06:37;;;;;;;6.70;1.73;;;;;;;;;;6166503;23;20121;-43
2023/07/29 13:09:06;;;;;;;7.97;1.00;;;;;;;;;;6147554;23;20071;-45
2023/07/29 13:11:33;;;;;;;7.43;1.17;;;;;;;;;;6156521;23;20112;-42
2023/07/29 13:14:01;;;;;;;5.55;0.80;;;;;;;;;;6148445;23;20021;-42
2023/07/29 13:16:30;;;;;;;7.60;1.58;;;;;;;;;;6158135;23;20059;-42
2023/07/29 13:18:58;;;;;;;6.90;1.40;;;;;;;;;;6151957;23;20013;-42
2023/07/29 13:21:26;;;;;;;7.22;0.90;;;;;;;;;;6157644;23;20025;-43
2023/07/29 13:23:54;;;;;;;6.80;1.10;;;;;;;;;;6141206;23;20021;-43
2023/07/29 13:26:22;;;;;;;5.75;1.17;;;;;;;;;;6153233;23;20027;-44
2023/07/29 13:28:49;;;;;;;10.20;1.30;;;;;;;;;;6161173;23;20021;-43
2023/07/29 13:31:17;;;;;;;6.93;1.03;;;;;;;;;;6156013;23;20036;-42
2023/07/29 13:36:32;;;;;;;9.20;1.40;;;;;;;;;;6155454;23;20427;-42
2023/07/29 13:38:59;;;;;;;6.35;1.10;;;;;;;;;;6149250;23;20013;-45
2023/07/29 13:41:27;;;;;;;6.30;1.30;;;;;;;;;;6146074;23;20756;-42
2023/07/29 13:43:55;;;;;;;10.80;1.67;;;;;;;;;;6156711;23;20385;-45
2023/07/29 13:46:23;;;;;;;9.05;1.17;;;;;;;;;;6150059;23;20052;-44
2023/07/29 13:48:52;;;;;;;9.50;1.60;;;;;;;;;;6162568;23;20503;-44
2023/07/29 13:51:19;;;;;;;4.90;0.85;;;;;;;;;;6148324;23;20021;-46
2023/07/29 13:53:47;;;;;;;8.20;1.52;;;;;;;;;;6159788;23;20031;-43
2023/07/29 13:56:15;;;;;;;4.97;0.70;;;;;;;;;;6150048;23;20021;-42
2023/07/29 13:58:43;;;;;;;8.93;1.70;;;;;;;;;;6163982;23;20081;-44
2023/07/29 14:01:11;;;;;;;9.52;0.90;;;;;;;;;;6149709;23;20016;-43
2023/07/29 14:03:38;;;;;;;5.85;0.80;;;;;;;;;;6158670;23;20462;-43
2023/07/29 14:06:10;;;;;;;4.80;1.00;;;;;;;;;;6144838;23;20101;-44
2023/07/29 14:08:40;;;;;;;7.60;1.80;;;;;;;;;;6153333;23;20028;-43
2023/07/29 14:11:11;;;;;;;9.70;1.40;;;;;;;;;;6155592;23;20017;-43
2023/07/29 14:13:39;;;;;;;9.85;2.00;;;;;;;;;;6150897;23;20043;-42
2023/07/29 14:16:06;;;;;;;6.78;1.13;;;;;;;;;;6159490;23;20101;-43
2023/07/29 14:18:34;;;;;;;7.43;1.33;;;;;;;;;;6151936;23;20063;-43
2023/07/29 14:21:02;;;;;;;6.63;1.13;;;;;;;;;;6160146;23;20020;-42
2023/07/29 14:23:32;;;;;;;6.97;1.02;;;;;;;;;;6141299;23;20063;-42
2023/07/29 14:26:00;;;;;;;5.47;1.13;;;;;;;;;;6160902;23;20017;-42
2023/07/29 14:28:28;;;;;;;8.02;1.30;;;;;;;;;;6151127;23;20567;-42
2023/07/29 14:30:55;;;;;;;5.43;1.40;;;;;;;;;;6151302;23;20433;-43
2023/07/29 14:33:23;;;;;;;8.77;1.30;;;;;;;;;;6152886;23;20017;-43
2023/07/29 14:35:51;;;;;;;5.82;1.10;;;;;;;;;;6156096;23;20016;-43
2023/07/29 14:38:18;;;;;;;7.55;1.33;;;;;;;;;;6129583;23;20028;-43
2023/07/29 14:40:48;;;;;;;8.68;1.23;;;;;;;;;;6156218;23;20364;-43
2023/07/29 14:43:16;;;;;;;7.72;1.60;;;;;;;;;;6148028;23;20017;-45
2023/07/29 14:45:44;;;;;;;4.03;1.10;;;;;;;;;;6159979;23;20423;-43
2023/07/29 14:48:12;;;;;;;5.72;1.10;;;;;;;;;;6149371;23;20351;-45
2023/07/29 14:50:39;;;;;;;5.40;1.00;;;;;;;;;;6166704;23;20032;-42
2023/07/29 14:53:09;;;;;;;4.97;1.42;;;;;;;;;;6145187;23;20043;-42